createdAt,value
2022-07-26T00:00:14.237Z,20.40
2022-07-26T00:02:47.201Z,20.40
2022-07-26T00:05:16.270Z,20.30
2022-07-26T00:07:43.508Z,20.20
2022-07-26T00:10:10.632Z,20.30
2022-07-26T00:12:37.784Z,20.30
2022-07-26T00:15:07.032Z,20.30
2022-07-26T00:17:33.733Z,20.30
2022-07-26T00:20:00.428Z,20.30
2022-07-26T00:22:36.525Z,20.40
2022-07-26T00:25:08.878Z,20.30
2022-07-26T00:27:38.808Z,20.10
2022-07-26T00:30:09.879Z,19.90
2022-07-26T00:32:37.854Z,19.90
2022-07-26T00:35:06.291Z,20.10
2022-07-26T00:37:33.259Z,20.10
2022-07-26T00:39:59.945Z,20.10
2022-07-26T00:42:27.094Z,20.10
2022-07-26T00:44:53.881Z,19.90
2022-07-26T00:47:20.706Z,19.90
2022-07-26T00:49:47.534Z,19.70
2022-07-26T00:52:14.385Z,19.70
2022-07-26T00:54:46.532Z,19.60
2022-07-26T00:57:14.955Z,19.70
2022-07-26T00:59:42.838Z,19.80
2022-07-26T01:02:10.464Z,19.90
2022-07-26T01:04:37.453Z,19.80
2022-07-26T01:07:15.115Z,19.90
2022-07-26T01:09:43.185Z,19.90
2022-07-26T01:12:10.260Z,19.90
2022-07-26T01:14:37.194Z,20.00
2022-07-26T01:17:04.250Z,20.10
2022-07-26T01:19:30.983Z,20.10
2022-07-26T01:21:57.741Z,20.00
2022-07-26T01:24:24.469Z,19.60
2022-07-26T01:26:51.386Z,19.50
2022-07-26T01:29:18.170Z,19.40
2022-07-26T01:31:44.946Z,19.60
2022-07-26T01:34:12.046Z,19.60
2022-07-26T01:36:39.709Z,19.60
2022-07-26T01:39:06.741Z,19.50
2022-07-26T01:41:37.886Z,19.60
2022-07-26T01:44:06.068Z,19.70
2022-07-26T01:46:33.608Z,19.70
2022-07-26T01:49:01.803Z,19.80
2022-07-26T01:51:28.752Z,19.80
2022-07-26T01:53:55.535Z,19.80
2022-07-26T01:56:22.267Z,19.80
2022-07-26T01:58:49.586Z,19.80
2022-07-26T02:01:16.383Z,19.80
2022-07-26T02:04:03.082Z,19.70
2022-07-26T02:06:29.821Z,19.70
2022-07-26T02:08:56.506Z,19.60
2022-07-26T02:11:23.389Z,19.60
2022-07-26T02:13:53.181Z,19.60
2022-07-26T02:16:20.285Z,19.60
2022-07-26T02:18:47.210Z,19.60
2022-07-26T02:21:13.936Z,19.60
2022-07-26T02:23:41.623Z,19.60
2022-07-26T02:26:08.743Z,19.60
2022-07-26T02:28:35.598Z,19.60
2022-07-26T02:31:02.491Z,19.50
2022-07-26T02:33:29.358Z,19.30
2022-07-26T02:35:56.045Z,19.30
2022-07-26T02:38:22.811Z,19.40
2022-07-26T02:40:52.770Z,19.50
2022-07-26T02:43:20.052Z,19.50
2022-07-26T02:46:01.592Z,19.40
2022-07-26T02:48:32.395Z,19.50
2022-07-26T02:50:59.408Z,19.50
2022-07-26T02:53:26.098Z,19.30
2022-07-26T02:55:52.800Z,19.20
2022-07-26T02:58:21.533Z,19.20
2022-07-26T03:00:48.493Z,19.10
2022-07-26T03:03:15.313Z,19.00
2022-07-26T03:05:42.279Z,19.00
2022-07-26T03:08:09.165Z,18.80
2022-07-26T03:10:36.080Z,18.60
2022-07-26T03:13:02.976Z,18.50
2022-07-26T03:15:29.832Z,18.30
2022-07-26T03:17:56.634Z,18.20
2022-07-26T03:20:24.073Z,18.40
2022-07-26T03:22:50.796Z,18.50
2022-07-26T03:25:17.591Z,18.40
2022-07-26T03:27:44.350Z,18.10
2022-07-26T03:30:11.991Z,18.20
2022-07-26T03:32:39.506Z,18.20
2022-07-26T03:35:07.414Z,18.20
2022-07-26T03:37:45.106Z,18.30
2022-07-26T03:40:17.742Z,18.30
2022-07-26T03:42:46.010Z,18.20
2022-07-26T03:45:13.951Z,18.10
2022-07-26T03:47:40.756Z,18.10
2022-07-26T03:50:08.680Z,18.00
2022-07-26T03:52:35.384Z,18.00
2022-07-26T03:55:22.159Z,17.90
2022-07-26T03:57:49.201Z,17.70
2022-07-26T04:00:15.992Z,17.70
2022-07-26T04:02:42.907Z,17.80
2022-07-26T04:05:10.271Z,17.80
2022-07-26T04:07:52.840Z,17.70
2022-07-26T04:10:21.446Z,17.80
2022-07-26T04:12:48.472Z,17.70
2022-07-26T04:15:16.965Z,17.70
2022-07-26T04:17:43.978Z,17.70
2022-07-26T04:20:12.662Z,17.90
2022-07-26T04:22:42.010Z,17.90
2022-07-26T04:25:09.652Z,17.90
2022-07-26T04:27:37.215Z,17.80
2022-07-26T04:30:06.669Z,17.80
2022-07-26T04:32:35.227Z,17.60
2022-07-26T04:35:01.978Z,17.50
2022-07-26T04:37:28.853Z,17.60
2022-07-26T04:39:55.527Z,17.70
2022-07-26T04:42:22.208Z,17.80
2022-07-26T04:44:48.901Z,17.80
2022-07-26T04:47:15.645Z,17.70
2022-07-26T04:49:42.369Z,17.70
2022-07-26T04:52:09.116Z,17.70
2022-07-26T04:54:35.834Z,17.60
2022-07-26T04:57:02.594Z,17.70
2022-07-26T04:59:29.305Z,17.70
2022-07-26T05:01:59.752Z,17.80
2022-07-26T05:04:26.806Z,17.80
2022-07-26T05:06:53.710Z,17.70
2022-07-26T05:09:20.409Z,17.80
2022-07-26T05:11:47.171Z,18.00
2022-07-26T05:14:13.861Z,18.00
2022-07-26T05:16:44.438Z,18.20
2022-07-26T05:19:12.255Z,18.30
2022-07-26T05:21:38.979Z,18.40
2022-07-26T05:24:07.957Z,18.40
2022-07-26T05:26:35.106Z,18.40
2022-07-26T05:29:02.150Z,18.50
2022-07-26T05:31:28.943Z,18.50
2022-07-26T05:33:55.731Z,18.50
2022-07-26T05:36:22.506Z,18.50
2022-07-26T05:38:49.220Z,18.50
2022-07-26T05:41:16.538Z,18.50
2022-07-26T05:43:43.290Z,18.50
2022-07-26T05:46:11.516Z,18.50
2022-07-26T05:48:39.576Z,18.50
2022-07-26T05:51:06.422Z,18.50
2022-07-26T05:53:33.306Z,18.40
2022-07-26T05:55:59.989Z,18.40
2022-07-26T05:58:26.731Z,18.50
2022-07-26T06:00:53.723Z,18.50
2022-07-26T06:03:23.216Z,18.50
2022-07-26T06:05:52.659Z,18.30
2022-07-26T06:08:20.578Z,18.30
2022-07-26T06:10:51.687Z,18.30
2022-07-26T06:13:18.870Z,18.20
2022-07-26T06:15:46.342Z,18.20
2022-07-26T06:18:13.466Z,18.20
2022-07-26T06:20:42.250Z,18.20
2022-07-26T06:23:09.182Z,18.10
2022-07-26T06:25:36.096Z,18.00
2022-07-26T06:28:04.189Z,17.90
2022-07-26T06:30:30.922Z,17.80
2022-07-26T06:32:58.132Z,17.70
2022-07-26T06:35:24.885Z,17.70
2022-07-26T06:37:51.639Z,17.40
2022-07-26T06:40:18.344Z,17.00
2022-07-26T06:42:45.035Z,16.70
2022-07-26T06:45:12.091Z,16.70
2022-07-26T06:47:38.810Z,16.80
2022-07-26T06:50:06.410Z,16.60
2022-07-26T06:52:33.319Z,16.70
2022-07-26T06:55:00.587Z,16.80
2022-07-26T06:57:27.706Z,16.80
2022-07-26T06:59:54.453Z,16.80
2022-07-26T07:02:21.402Z,17.00
2022-07-26T07:04:48.251Z,17.00
2022-07-26T07:07:14.989Z,16.90
2022-07-26T07:09:41.731Z,17.00
2022-07-26T07:12:10.412Z,17.00
2022-07-26T07:14:38.416Z,16.90
2022-07-26T07:17:12.964Z,17.00
2022-07-26T07:19:41.098Z,16.90
2022-07-26T07:22:11.738Z,17.10
2022-07-26T07:24:39.177Z,17.10
2022-07-26T07:27:06.283Z,17.00
2022-07-26T07:29:33.838Z,16.80
2022-07-26T07:32:00.814Z,16.70
2022-07-26T07:34:30.449Z,16.60
2022-07-26T07:36:57.692Z,16.60
2022-07-26T07:39:34.461Z,16.30
2022-07-26T07:42:05.464Z,16.20
2022-07-26T07:44:32.201Z,16.10
2022-07-26T07:46:58.968Z,16.00
2022-07-26T07:49:25.829Z,15.90
2022-07-26T07:51:52.594Z,15.80
2022-07-26T07:54:19.335Z,15.80
2022-07-26T07:56:49.172Z,15.90
2022-07-26T07:59:15.907Z,15.80
2022-07-26T08:01:42.684Z,16.00
2022-07-26T08:04:11.863Z,16.20
2022-07-26T08:06:40.767Z,16.40
2022-07-26T08:09:09.041Z,16.50
2022-07-26T08:11:36.285Z,16.50
2022-07-26T08:14:03.411Z,16.60
2022-07-26T08:16:31.020Z,16.70
2022-07-26T08:18:59.030Z,16.80
2022-07-26T08:21:28.086Z,17.00
2022-07-26T08:23:55.985Z,17.00
2022-07-26T08:26:22.707Z,17.10
2022-07-26T08:28:58.603Z,17.10
2022-07-26T08:31:28.237Z,17.20
2022-07-26T08:33:55.481Z,17.30
2022-07-26T08:36:22.500Z,17.40
2022-07-26T08:38:49.558Z,17.30
2022-07-26T08:41:17.947Z,17.50
2022-07-26T08:43:52.654Z,17.60
2022-07-26T08:46:26.835Z,17.70
2022-07-26T08:48:55.400Z,17.80
2022-07-26T08:51:24.463Z,18.00
2022-07-26T08:53:58.023Z,18.00
2022-07-26T08:56:30.995Z,18.10
2022-07-26T08:58:57.797Z,18.20
2022-07-26T09:01:24.605Z,18.10
2022-07-26T09:03:51.479Z,18.20
2022-07-26T09:06:20.968Z,18.20
2022-07-26T09:08:52.472Z,18.10
2022-07-26T09:11:26.224Z,18.10
2022-07-26T09:13:56.053Z,18.10
2022-07-26T09:16:22.833Z,18.00
2022-07-26T09:18:49.630Z,18.10
2022-07-26T09:21:36.005Z,18.20
2022-07-26T09:24:03.171Z,18.30
2022-07-26T09:26:30.028Z,18.40
2022-07-26T09:29:12.146Z,18.50
2022-07-26T09:31:40.166Z,18.60
2022-07-26T09:34:08.085Z,18.60
2022-07-26T09:36:50.571Z,18.70
2022-07-26T09:39:17.322Z,18.70
2022-07-26T09:42:04.823Z,18.80
2022-07-26T09:44:47.754Z,18.80
2022-07-26T09:47:15.177Z,18.90
2022-07-26T09:49:43.168Z,18.90
2022-07-26T09:52:20.768Z,18.90
2022-07-26T09:54:49.393Z,19.10
2022-07-26T09:57:18.736Z,19.30
2022-07-26T09:59:46.786Z,19.30
2022-07-26T10:02:14.402Z,19.30
2022-07-26T10:04:42.170Z,19.20
2022-07-26T10:07:10.496Z,19.10
2022-07-26T10:09:48.874Z,19.20
2022-07-26T10:12:17.577Z,19.30
2022-07-26T10:14:47.151Z,19.40
2022-07-26T10:17:31.677Z,19.50
2022-07-26T10:20:15.148Z,19.70
2022-07-26T10:22:47.829Z,19.80
2022-07-26T10:25:34.775Z,19.90
2022-07-26T10:28:01.762Z,19.90
2022-07-26T10:30:38.463Z,20.10
2022-07-26T10:33:12.663Z,20.20
2022-07-26T10:35:41.980Z,20.10
2022-07-26T10:38:14.945Z,19.90
2022-07-26T10:40:59.835Z,20.00
2022-07-26T10:43:43.489Z,20.10
2022-07-26T10:46:24.941Z,20.30
2022-07-26T10:49:06.458Z,20.30
2022-07-26T10:51:36.494Z,20.20
2022-07-26T10:54:06.567Z,20.10
2022-07-26T10:56:34.285Z,20.00
2022-07-26T10:59:02.547Z,20.10
2022-07-26T11:01:40.762Z,20.20
2022-07-26T11:04:18.800Z,20.40
2022-07-26T11:06:45.781Z,20.50
2022-07-26T11:09:12.987Z,20.60
2022-07-26T11:11:40.127Z,20.70
2022-07-26T11:14:16.001Z,20.60
2022-07-26T11:16:47.491Z,20.50
2022-07-26T11:19:22.337Z,20.50
2022-07-26T11:21:58.919Z,20.40
2022-07-26T11:24:26.870Z,20.40
2022-07-26T11:26:54.026Z,20.40
2022-07-26T11:29:38.666Z,20.40
2022-07-26T11:32:20.391Z,20.50
2022-07-26T11:34:59.073Z,20.50
2022-07-26T11:37:25.924Z,20.60
2022-07-26T11:39:52.713Z,20.70
2022-07-26T11:42:21.519Z,20.70
2022-07-26T11:44:49.646Z,20.80
2022-07-26T11:47:20.024Z,20.60
2022-07-26T11:50:00.015Z,20.40
2022-07-26T11:52:35.049Z,20.50
2022-07-26T11:55:01.788Z,20.70
2022-07-26T11:57:30.648Z,20.70
2022-07-26T11:59:59.542Z,20.90
2022-07-26T12:02:27.939Z,21.10
2022-07-26T12:05:15.386Z,21.40
2022-07-26T12:08:00.704Z,21.70
2022-07-26T12:10:28.209Z,21.80
2022-07-26T12:13:27.445Z,21.50
2022-07-26T12:16:06.764Z,21.40
2022-07-26T12:18:35.309Z,21.30
2022-07-26T12:21:09.669Z,21.10
2022-07-26T12:23:45.006Z,20.80
2022-07-26T12:26:28.969Z,20.70
2022-07-26T12:28:57.043Z,20.60
2022-07-26T12:31:30.011Z,20.60
2022-07-26T12:33:57.354Z,20.80
2022-07-26T12:36:27.875Z,20.70
2022-07-26T12:38:58.466Z,20.70
2022-07-26T12:41:39.358Z,20.70
2022-07-26T12:44:08.523Z,20.30
2022-07-26T12:46:36.351Z,20.10
2022-07-26T12:49:03.958Z,20.00
2022-07-26T12:51:30.785Z,19.80
2022-07-26T12:53:57.686Z,19.60
2022-07-26T12:56:24.392Z,19.50
2022-07-26T12:58:51.179Z,19.40
2022-07-26T13:01:17.976Z,19.30
2022-07-26T13:03:44.747Z,19.30
2022-07-26T13:06:12.620Z,19.30
2022-07-26T13:08:40.335Z,19.30
2022-07-26T13:11:07.155Z,19.20
2022-07-26T13:13:33.886Z,19.10
2022-07-26T13:16:00.608Z,19.10
2022-07-26T13:18:27.333Z,19.00
2022-07-26T13:20:54.058Z,19.00
2022-07-26T13:23:21.818Z,19.00
2022-07-26T13:25:49.786Z,19.10
2022-07-26T13:28:17.575Z,19.20
2022-07-26T13:30:45.083Z,19.30
2022-07-26T13:33:13.144Z,19.50
2022-07-26T13:35:42.494Z,19.60
2022-07-26T13:38:10.419Z,19.80
2022-07-26T13:40:37.464Z,20.10
2022-07-26T13:43:05.108Z,20.50
2022-07-26T13:45:31.876Z,20.90
2022-07-26T13:47:59.687Z,21.20
2022-07-26T13:50:29.916Z,21.80
2022-07-26T13:52:57.102Z,22.20
2022-07-26T13:55:24.368Z,22.70
2022-07-26T13:57:57.155Z,22.80
2022-07-26T14:00:29.393Z,23.00
2022-07-26T14:02:58.705Z,23.30
2022-07-26T14:05:27.107Z,23.40
2022-07-26T14:07:54.466Z,23.60
2022-07-26T14:10:22.242Z,23.30
2022-07-26T14:12:49.245Z,23.30
2022-07-26T14:15:21.659Z,23.50
2022-07-26T14:17:49.285Z,23.50
2022-07-26T14:20:18.840Z,23.30
2022-07-26T14:22:46.113Z,23.60
2022-07-26T14:25:13.078Z,23.70
2022-07-26T14:27:39.910Z,23.60
2022-07-26T14:30:07.078Z,23.80
2022-07-26T14:32:33.845Z,24.20
2022-07-26T14:35:00.640Z,24.00
2022-07-26T14:37:42.416Z,23.40
2022-07-26T14:40:16.064Z,23.20
2022-07-26T14:42:43.296Z,23.30
2022-07-26T14:45:11.189Z,23.90
2022-07-26T14:47:38.113Z,24.20
2022-07-26T14:50:07.718Z,24.30
2022-07-26T14:52:38.263Z,24.50
2022-07-26T14:55:06.115Z,24.40
2022-07-26T14:57:33.384Z,24.10
2022-07-26T15:00:06.654Z,24.00
2022-07-26T15:02:34.600Z,24.20
2022-07-26T15:05:01.888Z,24.50
2022-07-26T15:07:28.623Z,24.80
2022-07-26T15:09:55.389Z,25.00
2022-07-26T15:12:22.310Z,25.30
2022-07-26T15:14:49.019Z,25.10
2022-07-26T15:17:15.936Z,25.00
2022-07-26T15:19:42.685Z,24.50
2022-07-26T15:22:10.237Z,24.50
2022-07-26T15:24:39.952Z,24.70
2022-07-26T15:27:07.351Z,25.30
2022-07-26T15:29:35.813Z,25.40
2022-07-26T15:32:03.314Z,25.70
2022-07-26T15:34:30.196Z,26.00
2022-07-26T15:36:57.041Z,25.70
2022-07-26T15:39:23.806Z,25.20
2022-07-26T15:41:51.178Z,24.60
2022-07-26T15:44:19.564Z,24.50
2022-07-26T15:46:49.175Z,24.50
2022-07-26T15:49:17.436Z,24.20
2022-07-26T15:51:44.524Z,23.70
2022-07-26T15:54:13.695Z,23.70
2022-07-26T15:56:41.007Z,23.40
2022-07-26T15:59:08.330Z,23.20
2022-07-26T16:01:36.286Z,23.10
2022-07-26T16:04:05.042Z,22.90
2022-07-26T16:06:35.505Z,22.90
2022-07-26T16:09:16.652Z,22.70
2022-07-26T16:11:44.824Z,22.50
2022-07-26T16:14:11.535Z,22.50
2022-07-26T16:16:38.417Z,22.30
2022-07-26T16:19:05.191Z,22.30
2022-07-26T16:21:32.140Z,22.40
2022-07-26T16:24:03.010Z,23.20
2022-07-26T16:26:33.060Z,24.20
2022-07-26T16:29:00.628Z,25.30
2022-07-26T16:31:27.669Z,25.70
2022-07-26T16:33:54.477Z,26.10
2022-07-26T16:36:21.264Z,25.70
2022-07-26T16:38:48.013Z,25.50
2022-07-26T16:41:14.839Z,26.10
2022-07-26T16:43:41.745Z,26.00
2022-07-26T16:46:08.821Z,25.50
2022-07-26T16:48:35.663Z,25.30
2022-07-26T16:51:02.505Z,24.60
2022-07-26T16:53:29.305Z,24.10
2022-07-26T16:55:56.021Z,24.20
2022-07-26T16:58:22.870Z,25.00
2022-07-26T17:00:50.370Z,26.10
2022-07-26T17:03:17.400Z,26.00
2022-07-26T17:05:46.188Z,25.40
2022-07-26T17:08:13.114Z,25.10
2022-07-26T17:10:39.891Z,24.60
2022-07-26T17:13:06.682Z,24.20
2022-07-26T17:15:33.447Z,24.00
2022-07-26T17:18:00.378Z,23.70
2022-07-26T17:20:27.345Z,23.50
2022-07-26T17:22:54.557Z,23.50
2022-07-26T17:25:21.270Z,23.20
2022-07-26T17:27:48.074Z,23.00
2022-07-26T17:30:14.970Z,22.90
2022-07-26T17:32:41.933Z,22.90
2022-07-26T17:35:09.281Z,22.80
2022-07-26T17:37:36.393Z,22.70
2022-07-26T17:40:06.603Z,22.70
2022-07-26T17:42:35.530Z,22.60
2022-07-26T17:45:02.409Z,22.60
2022-07-26T17:47:30.529Z,22.60
2022-07-26T17:50:34.726Z,22.40
2022-07-26T17:52:50.020Z,22.40
2022-07-26T17:55:18.524Z,22.30
2022-07-26T17:57:45.910Z,22.20
2022-07-26T18:00:13.725Z,22.20
2022-07-26T18:02:40.724Z,22.10
2022-07-26T18:05:07.774Z,22.00
2022-07-26T18:07:34.565Z,21.90
2022-07-26T18:10:01.366Z,21.80
2022-07-26T18:12:30.497Z,21.70
2022-07-26T18:14:57.391Z,21.70
2022-07-26T18:17:24.553Z,21.70
2022-07-26T18:19:51.272Z,21.70
2022-07-26T18:22:18.025Z,21.60
2022-07-26T18:24:44.712Z,21.60
2022-07-26T18:27:11.584Z,21.60
2022-07-26T18:29:38.274Z,21.50
2022-07-26T18:32:05.326Z,21.50
2022-07-26T18:34:32.017Z,21.50
2022-07-26T18:36:58.769Z,21.50
2022-07-26T18:39:25.552Z,21.50
2022-07-26T18:41:59.506Z,21.50
2022-07-26T18:44:26.250Z,21.50
2022-07-26T18:46:53.023Z,21.50
2022-07-26T18:49:21.179Z,21.50
2022-07-26T18:51:48.938Z,21.40
2022-07-26T18:54:16.777Z,21.50
2022-07-26T18:56:43.777Z,21.40
2022-07-26T18:59:11.088Z,21.40
2022-07-26T19:01:38.051Z,21.40
2022-07-26T19:04:07.250Z,21.30
2022-07-26T19:06:34.950Z,21.30
2022-07-26T19:09:01.893Z,21.20
2022-07-26T19:11:30.195Z,21.20
2022-07-26T19:13:57.090Z,21.10
2022-07-26T19:16:26.424Z,21.10
2022-07-26T19:18:57.293Z,21.00
2022-07-26T19:21:24.493Z,21.00
2022-07-26T19:23:51.520Z,21.00
2022-07-26T19:26:18.348Z,21.00
2022-07-26T19:28:45.211Z,21.00
2022-07-26T19:31:12.145Z,20.90
2022-07-26T19:33:39.007Z,20.90
2022-07-26T19:36:05.918Z,20.80
2022-07-26T19:38:33.078Z,20.80
2022-07-26T19:41:00.573Z,20.80
2022-07-26T19:43:27.754Z,20.70
2022-07-26T19:45:54.926Z,20.70
2022-07-26T19:48:21.704Z,20.60
2022-07-26T19:50:48.736Z,20.40
2022-07-26T19:53:15.566Z,20.30
2022-07-26T19:55:42.467Z,20.30
2022-07-26T19:58:09.719Z,20.30
2022-07-26T20:00:36.458Z,20.30
2022-07-26T20:03:03.639Z,20.30
2022-07-26T20:05:30.878Z,20.30
2022-07-26T20:07:58.743Z,20.30
2022-07-26T20:10:31.534Z,20.30
2022-07-26T20:12:59.572Z,20.30
2022-07-26T20:15:26.396Z,20.20
2022-07-26T20:17:53.287Z,20.30
2022-07-26T20:20:20.240Z,20.20
2022-07-26T20:22:47.091Z,20.20
2022-07-26T20:25:18.089Z,20.10
2022-07-26T20:27:49.850Z,20.00
2022-07-26T20:30:17.263Z,20.20
2022-07-26T20:32:44.392Z,20.20
2022-07-26T20:35:11.315Z,20.20
2022-07-26T20:37:38.233Z,20.10
2022-07-26T20:40:07.152Z,20.00
2022-07-26T20:42:36.065Z,20.00
2022-07-26T20:45:02.950Z,20.00
2022-07-26T20:47:29.794Z,20.00
2022-07-26T20:50:02.685Z,19.90
2022-07-26T20:52:30.079Z,19.80
2022-07-26T20:54:56.837Z,19.70
2022-07-26T20:57:23.665Z,19.70
2022-07-26T20:59:50.447Z,19.60
2022-07-26T21:02:17.560Z,19.50
2022-07-26T21:04:45.598Z,19.30
2022-07-26T21:07:12.411Z,19.20
2022-07-26T21:09:39.118Z,19.20
2022-07-26T21:12:06.222Z,19.20
2022-07-26T21:14:32.956Z,19.20
2022-07-26T21:16:59.883Z,19.20
2022-07-26T21:19:26.784Z,19.20
2022-07-26T21:21:57.056Z,19.20
2022-07-26T21:24:23.859Z,19.10
2022-07-26T21:26:50.640Z,19.10
2022-07-26T21:29:17.440Z,19.10
2022-07-26T21:31:44.150Z,19.10
2022-07-26T21:34:11.535Z,19.10
2022-07-26T21:36:40.257Z,19.00
2022-07-26T21:39:08.471Z,19.00
2022-07-26T21:41:35.808Z,19.00
2022-07-26T21:44:04.209Z,19.00
2022-07-26T21:46:31.041Z,19.00
2022-07-26T21:48:57.900Z,19.00
2022-07-26T21:51:24.728Z,18.90
2022-07-26T21:53:51.453Z,18.90
2022-07-26T21:56:18.235Z,18.90
2022-07-26T21:58:44.995Z,18.90
2022-07-26T22:01:14.593Z,18.80
2022-07-26T22:03:42.490Z,18.80
2022-07-26T22:06:10.155Z,18.80
2022-07-26T22:08:37.467Z,18.80
2022-07-26T22:11:05.083Z,18.70
2022-07-26T22:13:32.125Z,18.70
2022-07-26T22:15:59.166Z,18.70
2022-07-26T22:18:26.451Z,18.60
2022-07-26T22:20:53.656Z,18.50
2022-07-26T22:23:23.037Z,18.50
2022-07-26T22:25:49.843Z,18.40
2022-07-26T22:28:17.913Z,18.20
2022-07-26T22:30:45.941Z,17.90
2022-07-26T22:33:12.919Z,17.90
2022-07-26T22:35:40.045Z,17.80
2022-07-26T22:38:11.000Z,17.80
2022-07-26T22:40:39.771Z,17.90
2022-07-26T22:43:07.064Z,18.00
2022-07-26T22:45:34.282Z,18.10
2022-07-26T22:48:02.739Z,18.20
2022-07-26T22:50:30.006Z,18.20
2022-07-26T22:52:57.056Z,18.10
2022-07-26T22:55:24.230Z,17.90
2022-07-26T22:57:51.046Z,17.80
2022-07-26T23:00:19.161Z,17.80
2022-07-26T23:02:47.304Z,17.70
2022-07-26T23:05:15.770Z,17.70
2022-07-26T23:07:44.810Z,17.70
2022-07-26T23:10:13.991Z,17.80
2022-07-26T23:12:40.736Z,17.90
2022-07-26T23:15:09.867Z,18.00
2022-07-26T23:17:37.638Z,18.00
2022-07-26T23:20:06.314Z,18.00
2022-07-26T23:22:33.480Z,18.00
2022-07-26T23:25:00.188Z,18.00
2022-07-26T23:27:26.951Z,18.10
2022-07-26T23:29:53.760Z,18.10
2022-07-26T23:32:20.563Z,17.90
2022-07-26T23:34:47.250Z,17.80
2022-07-26T23:37:13.995Z,17.80
2022-07-26T23:39:40.784Z,17.80
2022-07-26T23:42:07.641Z,17.80
2022-07-26T23:44:34.417Z,17.80
2022-07-26T23:47:01.457Z,17.80
2022-07-26T23:49:28.262Z,17.80
2022-07-26T23:51:55.085Z,17.80
2022-07-26T23:54:21.788Z,17.80
2022-07-26T23:56:48.606Z,17.80
2022-07-26T23:59:15.767Z,17.70
